createdAt,value
2022-12-11T00:02:06.953Z,13.80
2022-12-11T00:05:13.247Z,15.60
2022-12-11T00:08:19.345Z,14.45
2022-12-11T00:11:27.011Z,14.70
2022-12-11T00:14:31.908Z,15.10
2022-12-11T00:17:38.349Z,13.90
2022-12-11T00:20:44.142Z,14.43
2022-12-11T00:23:50.612Z,15.05
2022-12-11T00:26:57.292Z,14.03
2022-12-11T00:30:04.085Z,13.83
2022-12-11T00:33:10.810Z,13.68
2022-12-11T00:36:17.324Z,12.35
2022-12-11T00:39:22.788Z,13.28
2022-12-11T00:42:21.885Z,13.62
2022-12-11T00:45:22.018Z,12.57
2022-12-11T00:48:28.785Z,14.03
2022-12-11T00:51:34.520Z,14.80
2022-12-11T00:54:40.213Z,14.58
2022-12-11T00:57:46.383Z,15.48
2022-12-11T01:00:52.399Z,15.45
2022-12-11T01:03:59.045Z,15.55
2022-12-11T01:07:05.458Z,14.45
2022-12-11T01:10:29.096Z,15.28
2022-12-11T01:13:36.111Z,13.53
2022-12-11T01:16:41.078Z,14.05
2022-12-11T01:19:46.866Z,15.32
2022-12-11T01:22:53.285Z,15.85
2022-12-11T01:25:59.146Z,16.65
2022-12-11T01:29:05.785Z,13.95
2022-12-11T01:32:12.497Z,14.60
2022-12-11T01:35:21.959Z,14.70
2022-12-11T01:38:27.305Z,13.43
2022-12-11T01:41:33.214Z,13.93
2022-12-11T01:44:43.765Z,14.73
2022-12-11T01:47:49.737Z,14.03
2022-12-11T01:51:11.580Z,14.43
2022-12-11T01:54:21.043Z,12.93
2022-12-11T01:57:27.243Z,15.32
2022-12-11T02:00:33.771Z,13.98
2022-12-11T02:03:39.634Z,13.88
2022-12-11T02:06:53.482Z,15.38
2022-12-11T02:10:00.042Z,13.25
2022-12-11T02:13:24.405Z,13.08
2022-12-11T02:16:38.273Z,14.45
2022-12-11T02:20:15.702Z,14.18
2022-12-11T02:23:41.540Z,15.48
2022-12-11T02:27:06.879Z,14.07
2022-12-11T02:30:20.826Z,13.58
2022-12-11T02:33:26.694Z,14.25
2022-12-11T02:36:32.057Z,14.73
2022-12-11T02:39:37.472Z,13.60
2022-12-11T02:42:45.351Z,14.18
2022-12-11T02:45:51.189Z,15.00
2022-12-11T02:48:57.795Z,14.83
2022-12-11T02:52:03.636Z,15.70
2022-12-11T02:55:10.722Z,15.13
2022-12-11T02:58:24.463Z,16.50
2022-12-11T03:01:31.740Z,15.78
2022-12-11T03:04:37.113Z,16.37
2022-12-11T03:07:47.985Z,16.95
2022-12-11T03:10:54.240Z,14.95
2022-12-11T03:14:00.810Z,15.28
2022-12-11T03:17:33.749Z,15.43
2022-12-11T03:21:04.640Z,14.68
2022-12-11T03:24:39.634Z,16.52
2022-12-11T03:28:06.082Z,15.75
2022-12-11T03:31:12.206Z,16.27
2022-12-11T03:34:14.282Z,15.53
2022-12-11T03:37:19.922Z,16.55
2022-12-11T03:40:28.731Z,16.97
2022-12-11T03:43:33.438Z,16.93
2022-12-11T03:46:44.962Z,16.62
2022-12-11T03:49:56.474Z,16.42
2022-12-11T03:53:03.167Z,17.35
2022-12-11T03:56:10.669Z,15.40
2022-12-11T03:59:09.677Z,17.85
2022-12-11T04:02:17.830Z,17.48
2022-12-11T04:05:23.912Z,16.95
2022-12-11T04:08:31.514Z,17.23
2022-12-11T04:11:43.121Z,16.23
2022-12-11T04:15:08.703Z,17.95
2022-12-11T04:18:34.709Z,17.10
2022-12-11T04:21:57.283Z,18.05
2022-12-11T04:25:04.412Z,19.37
2022-12-11T04:28:09.510Z,18.12
2022-12-11T04:31:15.449Z,18.05
2022-12-11T04:34:20.912Z,18.05
2022-12-11T04:37:27.559Z,18.48
2022-12-11T04:40:32.971Z,18.27
2022-12-11T04:43:38.579Z,17.65
2022-12-11T04:46:44.637Z,18.90
2022-12-11T04:49:44.306Z,17.70
2022-12-11T04:52:50.360Z,17.92
2022-12-11T04:55:56.199Z,17.90
2022-12-11T04:59:02.708Z,18.52
2022-12-11T05:02:09.870Z,18.57
2022-12-11T05:05:18.023Z,20.00
2022-12-11T05:08:23.737Z,18.57
2022-12-11T05:11:29.438Z,19.23
2022-12-11T05:14:34.279Z,20.12
2022-12-11T05:17:40.192Z,18.37
2022-12-11T05:20:46.321Z,19.07
2022-12-11T05:23:52.180Z,20.45
2022-12-11T05:26:57.989Z,19.32
2022-12-11T05:30:04.766Z,18.85
2022-12-11T05:33:11.515Z,18.45
2022-12-11T05:36:17.269Z,18.80
2022-12-11T05:39:23.639Z,20.02
2022-12-11T05:42:29.395Z,19.85
2022-12-11T05:45:35.248Z,21.30
2022-12-11T05:48:41.484Z,21.85
2022-12-11T05:51:50.083Z,21.70
2022-12-11T05:54:56.473Z,22.50
2022-12-11T05:58:03.304Z,21.57
2022-12-11T06:01:09.390Z,21.55
2022-12-11T06:04:17.350Z,22.37
2022-12-11T06:07:25.410Z,21.97
2022-12-11T06:10:30.970Z,22.58
2022-12-11T06:13:36.483Z,23.55
2022-12-11T06:16:41.983Z,21.30
2022-12-11T06:19:48.159Z,20.55
2022-12-11T06:22:54.097Z,19.90
2022-12-11T06:25:59.339Z,20.17
2022-12-11T06:29:08.984Z,20.20
2022-12-11T06:32:11.800Z,20.75
2022-12-11T06:35:16.560Z,21.77
2022-12-11T06:38:21.973Z,21.05
2022-12-11T06:41:27.018Z,20.37
2022-12-11T06:44:32.776Z,21.90
2022-12-11T06:47:41.459Z,21.70
2022-12-11T06:50:47.107Z,21.17
2022-12-11T06:53:52.622Z,22.25
2022-12-11T06:56:58.429Z,20.35
2022-12-11T07:00:03.488Z,21.75
2022-12-11T07:03:09.580Z,21.57
2022-12-11T07:06:10.367Z,19.92
2022-12-11T07:09:22.160Z,20.88
2022-12-11T07:12:27.760Z,20.55
2022-12-11T07:15:37.713Z,20.12
2022-12-11T07:18:42.335Z,19.57
2022-12-11T07:21:48.261Z,20.43
2022-12-11T07:24:54.378Z,19.80
2022-12-11T07:27:59.313Z,19.70
2022-12-11T07:31:05.547Z,19.60
2022-12-11T07:34:17.026Z,18.80
2022-12-11T07:37:22.409Z,19.92
2022-12-11T07:40:29.758Z,18.87
2022-12-11T07:43:34.794Z,18.95
2022-12-11T07:46:43.677Z,19.45
2022-12-11T07:49:49.612Z,18.82
2022-12-11T07:52:55.452Z,20.92
2022-12-11T07:56:04.245Z,20.20
2022-12-11T07:59:08.768Z,19.35
2022-12-11T08:02:15.079Z,19.95
2022-12-11T08:05:21.438Z,18.70
2022-12-11T08:08:20.362Z,17.73
2022-12-11T08:11:27.678Z,17.27
2022-12-11T08:14:33.190Z,19.70
2022-12-11T08:17:40.184Z,16.65
2022-12-11T08:20:45.928Z,17.57
2022-12-11T08:23:52.516Z,17.60
2022-12-11T08:26:58.665Z,17.85
2022-12-11T08:30:06.085Z,18.98
2022-12-11T08:33:12.457Z,19.32
2022-12-11T08:36:20.588Z,17.62
2022-12-11T08:39:26.905Z,18.95
2022-12-11T08:42:33.337Z,18.77
2022-12-11T08:45:40.141Z,17.37
2022-12-11T08:48:45.485Z,19.07
2022-12-11T08:51:50.971Z,18.70
2022-12-11T08:54:57.008Z,18.12
2022-12-11T08:58:03.151Z,18.10
2022-12-11T09:01:09.958Z,18.55
2022-12-11T09:04:15.535Z,17.80
2022-12-11T09:07:22.073Z,15.70
2022-12-11T09:10:28.059Z,17.73
2022-12-11T09:13:34.714Z,16.65
2022-12-11T09:16:42.802Z,17.00
2022-12-11T09:19:48.684Z,16.55
2022-12-11T09:22:48.302Z,18.40
2022-12-11T09:25:56.363Z,21.40
2022-12-11T09:29:02.570Z,22.20
2022-12-11T09:32:08.801Z,22.95
2022-12-11T09:35:14.581Z,20.97
2022-12-11T09:38:21.609Z,17.10
2022-12-11T09:41:55.183Z,18.45
2022-12-11T09:45:09.371Z,16.27
2022-12-11T09:48:08.487Z,18.80
2022-12-11T09:51:14.224Z,16.73
2022-12-11T09:54:20.658Z,19.62
2022-12-11T09:57:42.946Z,18.32
2022-12-11T10:01:02.168Z,15.83
2022-12-11T10:04:22.443Z,17.67
2022-12-11T10:07:42.403Z,16.80
2022-12-11T10:11:21.253Z,15.50
2022-12-11T10:15:12.432Z,15.63
2022-12-11T10:18:22.064Z,16.07
2022-12-11T10:21:28.415Z,15.30
2022-12-11T10:27:51.100Z,15.68
2022-12-11T10:31:08.347Z,18.10
2022-12-11T10:34:27.068Z,17.23
2022-12-11T10:37:32.548Z,17.07
2022-12-11T10:40:40.052Z,17.87
2022-12-11T10:43:54.761Z,15.90
2022-12-11T10:47:00.834Z,14.75
2022-12-11T10:50:14.676Z,16.05
2022-12-11T10:53:20.186Z,14.90
2022-12-11T10:56:24.696Z,15.98
2022-12-11T10:59:47.410Z,15.98
2022-12-11T11:03:09.662Z,15.68
2022-12-11T11:06:30.746Z,14.87
2022-12-11T11:09:48.788Z,14.55
2022-12-11T11:13:00.106Z,16.77
2022-12-11T11:16:21.449Z,14.03
2022-12-11T11:19:40.974Z,14.95
2022-12-11T11:22:28.234Z,15.32
2022-12-11T11:25:31.174Z,15.15
2022-12-11T11:28:27.749Z,13.50
2022-12-11T11:31:33.035Z,13.68
2022-12-11T11:34:38.242Z,14.70
2022-12-11T11:37:47.997Z,13.80
2022-12-11T11:41:14.760Z,16.17
2022-12-11T11:44:12.758Z,15.00
2022-12-11T11:47:23.184Z,13.03
2022-12-11T11:50:37.010Z,13.03
2022-12-11T11:53:49.498Z,13.10
2022-12-11T11:56:55.779Z,12.93
2022-12-11T12:00:10.003Z,13.38
2022-12-11T12:03:17.893Z,13.72
2022-12-11T12:06:59.615Z,12.73
2022-12-11T12:10:33.469Z,13.50
2022-12-11T12:14:50.507Z,13.32
2022-12-11T12:17:36.381Z,13.72
2022-12-11T12:21:10.755Z,13.78
2022-12-11T12:24:40.183Z,13.10
2022-12-11T12:28:07.151Z,12.18
2022-12-11T12:31:27.095Z,13.00
2022-12-11T12:34:51.062Z,12.40
2022-12-11T12:38:20.400Z,13.03
2022-12-11T12:42:05.640Z,12.55
2022-12-11T12:45:27.392Z,12.75
2022-12-11T12:48:34.201Z,13.48
2022-12-11T12:51:33.318Z,12.18
2022-12-11T12:54:30.187Z,12.35
2022-12-11T12:57:35.981Z,12.80
2022-12-11T13:00:56.480Z,13.75
2022-12-11T13:04:39.590Z,12.03
2022-12-11T13:07:40.146Z,13.65
2022-12-11T13:10:52.058Z,12.75
2022-12-11T13:14:02.678Z,12.35
2022-12-11T13:17:09.541Z,14.60
2022-12-11T13:20:31.174Z,12.73
2022-12-11T13:23:47.966Z,13.53
2022-12-11T13:26:54.619Z,13.35
2022-12-11T13:30:01.061Z,13.15
2022-12-11T13:33:23.324Z,13.08
2022-12-11T13:36:35.038Z,13.38
2022-12-11T13:39:52.109Z,13.50
2022-12-11T13:43:16.106Z,13.03
2022-12-11T13:46:24.442Z,13.00
2022-12-11T13:49:44.033Z,13.80
2022-12-11T13:52:50.653Z,12.88
2022-12-11T13:55:56.389Z,12.65
2022-12-11T13:59:03.490Z,12.15
2022-12-11T14:02:13.340Z,14.55
2022-12-11T14:05:22.632Z,12.58
2022-12-11T14:08:31.474Z,12.03
2022-12-11T14:11:41.939Z,13.08
2022-12-11T14:14:58.566Z,14.20
2022-12-11T14:18:04.046Z,13.22
2022-12-11T14:21:14.753Z,13.72
2022-12-11T14:24:22.888Z,13.72
2022-12-11T14:27:31.316Z,15.38
2022-12-11T14:30:44.053Z,14.13
2022-12-11T14:33:55.620Z,13.20
2022-12-11T14:37:02.141Z,13.53
2022-12-11T14:40:27.324Z,13.15
2022-12-11T14:43:40.688Z,13.08
2022-12-11T14:47:01.458Z,15.80
2022-12-11T14:50:44.193Z,13.30
2022-12-11T14:53:52.678Z,13.65
2022-12-11T14:56:59.108Z,13.72
2022-12-11T15:00:06.231Z,14.73
2022-12-11T15:03:28.303Z,13.38
2022-12-11T15:06:44.461Z,13.90
2022-12-11T15:09:53.274Z,13.78
2022-12-11T15:13:00.900Z,14.78
2022-12-11T15:16:07.762Z,13.83
2022-12-11T15:19:12.965Z,14.28
2022-12-11T15:22:23.440Z,13.80
2022-12-11T15:25:40.480Z,15.08
2022-12-11T15:28:50.435Z,14.28
2022-12-11T15:31:50.864Z,14.38
2022-12-11T15:35:05.846Z,15.30
2022-12-11T15:38:12.471Z,15.50
2022-12-11T15:41:17.536Z,14.87
2022-12-11T15:44:25.858Z,15.70
2022-12-11T15:47:32.982Z,15.95
2022-12-11T15:50:45.161Z,15.25
2022-12-11T15:53:51.736Z,15.50
2022-12-11T15:56:57.660Z,16.27
2022-12-11T16:00:04.512Z,16.67
2022-12-11T16:03:10.357Z,16.12
2022-12-11T16:06:17.293Z,15.65
2022-12-11T16:09:23.903Z,15.63
2022-12-11T16:12:30.271Z,16.23
2022-12-11T16:15:35.942Z,16.80
2022-12-11T16:18:41.520Z,17.00
2022-12-11T16:21:46.771Z,15.23
2022-12-11T16:24:53.414Z,16.85
2022-12-11T16:27:59.146Z,19.35
2022-12-11T16:31:05.331Z,16.97
2022-12-11T16:34:11.161Z,17.73
2022-12-11T16:37:19.737Z,17.55
2022-12-11T16:40:26.145Z,19.02
2022-12-11T16:43:31.993Z,18.45
2022-12-11T16:46:37.829Z,17.32
2022-12-11T16:49:43.921Z,16.65
2022-12-11T16:52:49.546Z,16.75
2022-12-11T16:55:55.182Z,18.07
2022-12-11T16:59:14.215Z,17.62
2022-12-11T17:02:20.993Z,16.37
2022-12-11T17:05:27.906Z,16.12
2022-12-11T17:08:33.649Z,16.77
2022-12-11T17:11:39.044Z,17.98
2022-12-11T17:14:44.658Z,18.40
2022-12-11T17:17:53.356Z,16.35
2022-12-11T17:20:59.342Z,16.27
2022-12-11T17:24:06.412Z,16.25
2022-12-11T17:27:11.621Z,16.20
2022-12-11T17:30:17.698Z,16.02
2022-12-11T17:33:24.581Z,15.93
2022-12-11T17:36:34.258Z,15.55
2022-12-11T17:39:40.246Z,16.10
2022-12-11T17:42:45.832Z,16.90
2022-12-11T17:45:59.943Z,15.58
2022-12-11T17:49:07.222Z,17.23
2022-12-11T17:52:12.497Z,18.52
2022-12-11T17:55:19.606Z,18.37
2022-12-11T17:58:28.748Z,18.65
2022-12-11T18:01:35.056Z,15.72
2022-12-11T18:04:40.830Z,17.27
2022-12-11T18:07:57.444Z,16.52
2022-12-11T18:10:59.711Z,13.03
2022-12-11T18:14:06.458Z,13.85
2022-12-11T18:17:13.048Z,14.33
2022-12-11T18:20:18.613Z,15.20
2022-12-11T18:23:25.489Z,13.40
2022-12-11T18:26:33.269Z,13.28
2022-12-11T18:29:39.274Z,15.23
2022-12-11T18:32:45.402Z,14.73
2022-12-11T18:35:50.726Z,15.15
2022-12-11T18:38:57.769Z,13.28
2022-12-11T18:42:31.552Z,14.65
2022-12-11T18:45:11.413Z,15.32
2022-12-11T18:48:16.580Z,15.10
2022-12-11T18:51:17.885Z,15.60
2022-12-11T18:54:24.088Z,15.35
2022-12-11T18:57:23.095Z,16.07
2022-12-11T22:16:38.984Z,17.77
2022-12-11T22:19:46.107Z,19.48
2022-12-11T22:22:51.748Z,17.40
2022-12-11T22:25:57.464Z,16.40
2022-12-11T22:29:02.654Z,17.07
2022-12-11T22:32:07.563Z,17.35
2022-12-11T22:35:15.538Z,14.93
2022-12-11T22:38:20.887Z,16.45
2022-12-11T22:41:38.979Z,15.88
2022-12-11T22:44:44.654Z,15.30
2022-12-11T22:47:50.452Z,16.15
2022-12-11T22:50:56.227Z,15.28
2022-12-11T22:54:01.525Z,14.63
2022-12-11T22:57:07.293Z,17.37
2022-12-11T23:00:12.277Z,15.93
2022-12-11T23:03:16.962Z,15.68
2022-12-11T23:06:22.149Z,15.18
2022-12-11T23:09:21.130Z,14.58
2022-12-11T23:12:20.130Z,14.33
2022-12-11T23:15:25.648Z,14.45
2022-12-11T23:18:31.069Z,16.52
2022-12-11T23:21:37.942Z,15.53
2022-12-11T23:24:43.478Z,13.98
2022-12-11T23:27:49.029Z,15.60
2022-12-11T23:30:55.596Z,14.78
2022-12-11T23:34:01.591Z,15.78
2022-12-11T23:37:07.915Z,14.30
2022-12-11T23:40:13.776Z,14.90
2022-12-11T23:43:20.277Z,14.38
2022-12-11T23:46:30.015Z,15.23
2022-12-11T23:52:40.461Z,14.83
2022-12-11T23:55:40.635Z,13.85
2022-12-11T23:58:49.195Z,13.08
